createdAt,value
2022-08-04T00:01:47.113Z,64.15
2022-08-04T00:04:41.715Z,53.33
2022-08-04T00:07:19.350Z,63.25
2022-08-04T00:10:10.143Z,66.63
2022-08-04T00:12:45.382Z,58.40
2022-08-04T00:15:18.350Z,53.92
2022-08-04T00:17:54.023Z,58.47
2022-08-04T00:20:30.469Z,67.03
2022-08-04T00:23:01.324Z,64.28
2022-08-04T00:25:31.310Z,61.70
2022-08-04T00:28:02.910Z,61.95
2022-08-04T00:30:32.835Z,61.72
2022-08-04T00:33:03.914Z,68.88
2022-08-04T00:35:35.162Z,62.30
2022-08-04T00:38:05.167Z,59.65
2022-08-04T00:40:50.245Z,60.88
2022-08-04T00:43:31.784Z,63.17
2022-08-04T00:46:40.026Z,114.78
2022-08-04T00:49:50.787Z,55.72
2022-08-04T00:52:45.724Z,57.72
2022-08-04T00:55:57.768Z,85.75
2022-08-04T00:58:53.447Z,70.78
2022-08-04T01:01:45.792Z,60.28
2022-08-04T01:04:25.786Z,53.38
2022-08-04T01:07:16.429Z,106.70
2022-08-04T01:10:05.476Z,55.33
2022-08-04T01:13:09.990Z,58.03
2022-08-04T01:16:00.524Z,66.18
2022-08-04T01:18:54.420Z,70.72
2022-08-04T01:22:01.150Z,56.45
2022-08-04T01:25:02.299Z,64.82
2022-08-04T01:27:57.377Z,51.10
2022-08-04T01:30:29.369Z,64.47
2022-08-04T01:33:05.045Z,104.32
2022-08-04T01:35:48.959Z,193.18
2022-08-04T01:38:26.036Z,92.18
2022-08-04T01:41:00.709Z,119.35
2022-08-04T01:43:33.756Z,61.63
2022-08-04T01:46:06.908Z,65.25
2022-08-04T01:48:39.873Z,100.60
2022-08-04T01:53:41.506Z,55.92
2022-08-04T01:56:12.661Z,68.47
2022-08-04T01:58:42.854Z,58.42
2022-08-04T02:01:15.396Z,73.20
2022-08-04T02:04:21.553Z,53.90
2022-08-04T02:06:50.633Z,51.78
2022-08-04T02:09:27.841Z,109.57
2022-08-04T02:12:15.949Z,67.35
2022-08-04T02:14:57.314Z,84.43
2022-08-04T02:17:35.184Z,55.33
2022-08-04T02:20:10.515Z,88.55
2022-08-04T02:22:54.508Z,138.27
2022-08-04T02:25:28.031Z,105.07
2022-08-04T02:28:23.491Z,92.82
2022-08-04T02:31:09.695Z,63.85
2022-08-04T02:33:43.743Z,59.55
2022-08-04T02:36:22.843Z,90.95
2022-08-04T02:39:01.664Z,67.70
2022-08-04T02:41:32.895Z,58.22
2022-08-04T02:44:05.891Z,70.93
2022-08-04T02:46:38.105Z,148.93
2022-08-04T02:49:10.692Z,99.07
2022-08-04T02:54:12.043Z,55.47
2022-08-04T02:56:42.124Z,90.90
2022-08-04T02:59:14.198Z,65.75
2022-08-04T03:01:57.879Z,67.05
2022-08-04T03:04:52.468Z,232.45
2022-08-04T03:08:21.405Z,240.30
2022-08-04T03:11:49.601Z,75.22
2022-08-04T03:15:12.314Z,165.75
2022-08-04T03:18:29.327Z,84.50
2022-08-04T03:22:18.706Z,89.57
2022-08-04T03:25:57.335Z,225.77
2022-08-04T03:29:35.241Z,62.28
2022-08-04T03:33:01.491Z,78.40
2022-08-04T03:35:58.609Z,90.13
2022-08-04T03:39:10.300Z,114.30
2022-08-04T03:42:14.242Z,106.47
2022-08-04T03:45:39.776Z,60.72
2022-08-04T03:48:50.240Z,62.40
2022-08-04T03:51:55.494Z,57.22
2022-08-04T03:55:16.039Z,117.97
2022-08-04T03:58:18.733Z,59.10
2022-08-04T04:00:59.206Z,55.05
2022-08-04T04:04:04.781Z,71.28
2022-08-04T04:07:09.604Z,62.90
2022-08-04T04:10:29.019Z,69.72
2022-08-04T04:13:51.840Z,59.33
2022-08-04T04:16:45.943Z,69.85
2022-08-04T04:20:10.175Z,197.13
2022-08-04T04:23:01.832Z,47.92
2022-08-04T04:25:43.696Z,137.02
2022-08-04T04:28:51.438Z,106.38
2022-08-04T04:31:58.851Z,55.78
2022-08-04T04:34:46.093Z,59.50
2022-08-04T04:37:31.233Z,64.10
2022-08-04T04:40:21.055Z,80.38
2022-08-04T04:43:12.857Z,237.48
2022-08-04T04:45:55.318Z,265.17
2022-08-04T04:48:38.696Z,76.70
2022-08-04T04:51:24.613Z,62.10
2022-08-04T04:54:06.294Z,106.68
2022-08-04T04:56:45.150Z,55.10
2022-08-04T04:59:20.239Z,77.50
2022-08-04T05:02:33.898Z,78.65
2022-08-04T05:06:00.466Z,64.95
2022-08-04T05:08:54.964Z,56.25
2022-08-04T05:11:57.121Z,80.65
2022-08-04T05:14:40.944Z,193.93
2022-08-04T05:17:23.389Z,64.43
2022-08-04T05:20:02.010Z,126.15
2022-08-04T05:22:38.895Z,71.53
2022-08-04T05:25:22.516Z,65.80
2022-08-04T05:27:58.837Z,68.75
2022-08-04T05:30:30.153Z,108.40
2022-08-04T05:33:05.643Z,64.28
2022-08-04T05:36:17.950Z,72.43
2022-08-04T05:38:39.822Z,82.53
2022-08-04T05:41:11.677Z,272.10
2022-08-04T05:43:45.074Z,116.55
2022-08-04T05:46:17.296Z,81.97
2022-08-04T05:48:49.914Z,53.60
2022-08-04T05:51:20.455Z,74.03
2022-08-04T05:53:51.185Z,57.78
2022-08-04T05:56:20.785Z,72.47
2022-08-04T05:58:51.019Z,95.13
2022-08-04T06:01:25.612Z,64.78
2022-08-04T06:03:58.226Z,68.30
2022-08-04T06:08:58.889Z,86.45
2022-08-04T06:11:30.415Z,53.88
2022-08-04T06:14:06.527Z,64.78
2022-08-04T06:16:42.524Z,80.03
2022-08-04T06:20:03.799Z,62.53
2022-08-04T06:22:07.948Z,50.83
2022-08-04T06:24:39.965Z,76.10
2022-08-04T06:27:10.341Z,60.88
2022-08-04T06:29:51.349Z,145.57
2022-08-04T06:32:41.267Z,80.63
2022-08-04T06:35:13.059Z,50.80
2022-08-04T06:37:44.354Z,80.07
2022-08-04T06:40:31.481Z,54.80
2022-08-04T06:43:07.694Z,47.88
2022-08-04T06:45:53.048Z,54.42
2022-08-04T06:48:33.270Z,49.15
2022-08-04T06:51:27.573Z,42.67
2022-08-04T06:53:54.792Z,57.58
2022-08-04T06:56:25.275Z,49.22
2022-08-04T06:58:56.471Z,44.95
2022-08-04T07:01:28.140Z,46.33
2022-08-04T07:03:57.673Z,49.30
2022-08-04T07:06:28.512Z,44.67
2022-08-04T07:08:58.009Z,42.20
2022-08-04T07:11:28.659Z,43.33
2022-08-04T07:14:08.764Z,40.70
2022-08-04T07:16:38.289Z,34.80
2022-08-04T07:19:10.561Z,43.15
2022-08-04T07:22:17.726Z,32.42
2022-08-04T07:24:32.697Z,34.78
2022-08-04T07:27:02.668Z,34.33
2022-08-04T07:29:32.705Z,40.15
2022-08-04T07:32:02.892Z,37.47
2022-08-04T07:34:32.951Z,36.85
2022-08-04T07:37:05.965Z,33.72
2022-08-04T07:39:48.185Z,32.42
2022-08-04T07:42:21.471Z,32.45
2022-08-04T07:44:50.693Z,33.85
2022-08-04T07:47:25.314Z,31.70
2022-08-04T07:49:57.603Z,37.67
2022-08-04T07:52:30.288Z,49.58
2022-08-04T07:55:00.378Z,47.25
2022-08-04T07:57:41.530Z,63.72
2022-08-04T08:00:15.010Z,52.63
2022-08-04T08:02:46.957Z,57.25
2022-08-04T08:05:19.394Z,94.97
2022-08-04T08:07:54.299Z,53.47
2022-08-04T08:10:25.044Z,62.47
2022-08-04T08:12:55.372Z,61.67
2022-08-04T08:15:25.443Z,97.72
2022-08-04T08:17:57.989Z,58.92
2022-08-04T08:20:30.707Z,73.70
2022-08-04T08:23:03.753Z,49.97
2022-08-04T08:25:34.687Z,53.10
2022-08-04T08:28:06.131Z,49.45
2022-08-04T08:30:36.429Z,85.43
2022-08-04T08:33:09.193Z,87.00
2022-08-04T08:35:54.830Z,61.95
2022-08-04T08:38:40.313Z,46.92
2022-08-04T08:41:54.343Z,73.72
2022-08-04T08:45:12.371Z,83.43
2022-08-04T08:51:52.127Z,41.97
2022-08-04T08:54:55.953Z,47.85
2022-08-04T08:58:00.039Z,50.17
2022-08-04T09:00:43.217Z,58.33
2022-08-04T09:03:47.339Z,53.67
2022-08-04T09:06:47.966Z,64.30
2022-08-04T09:09:42.163Z,54.80
2022-08-04T09:12:25.764Z,41.75
2022-08-04T09:15:04.565Z,48.30
2022-08-04T09:17:43.189Z,53.95
2022-08-04T09:20:23.026Z,57.90
2022-08-04T09:23:01.792Z,49.88
2022-08-04T09:25:40.170Z,65.05
2022-08-04T09:28:51.725Z,65.65
2022-08-04T09:31:21.079Z,67.82
2022-08-04T09:34:00.387Z,36.15
2022-08-04T09:36:40.780Z,62.10
2022-08-04T09:39:23.951Z,58.38
2022-08-04T09:42:05.561Z,37.60
2022-08-04T09:44:57.504Z,42.85
2022-08-04T09:47:40.758Z,49.60
2022-08-04T09:50:26.711Z,54.00
2022-08-04T09:53:08.096Z,69.35
2022-08-04T09:55:53.258Z,54.33
2022-08-04T09:58:42.072Z,52.65
2022-08-04T10:01:23.161Z,56.45
2022-08-04T10:03:57.729Z,71.03
2022-08-04T10:07:03.992Z,83.72
2022-08-04T10:09:49.233Z,61.97
2022-08-04T10:12:59.292Z,89.78
2022-08-04T10:15:36.329Z,72.65
2022-08-04T10:18:28.909Z,99.70
2022-08-04T10:21:11.710Z,104.90
2022-08-04T10:24:08.826Z,118.45
2022-08-04T10:26:53.220Z,110.93
2022-08-04T10:29:32.179Z,107.63
2022-08-04T10:32:13.403Z,136.00
2022-08-04T10:35:01.170Z,111.40
2022-08-04T10:37:53.275Z,127.35
2022-08-04T10:40:43.432Z,96.15
2022-08-04T10:43:26.987Z,96.93
2022-08-04T10:46:03.229Z,96.68
2022-08-04T10:48:45.835Z,94.60
2022-08-04T10:51:27.067Z,124.38
2022-08-04T10:54:03.720Z,140.65
2022-08-04T10:56:41.938Z,110.03
2022-08-04T10:59:21.556Z,105.93
2022-08-04T11:02:01.438Z,119.90
2022-08-04T11:04:39.345Z,111.93
2022-08-04T11:07:11.770Z,125.05
2022-08-04T11:09:44.247Z,101.72
2022-08-04T11:12:20.888Z,116.13
2022-08-04T11:14:57.297Z,139.52
2022-08-04T11:17:33.673Z,144.55
2022-08-04T11:20:35.362Z,113.35
2022-08-04T11:23:13.615Z,153.13
2022-08-04T11:25:54.189Z,106.97
2022-08-04T11:28:35.152Z,98.57
2022-08-04T11:31:09.243Z,113.13
2022-08-04T11:33:51.286Z,131.43
2022-08-04T11:36:32.182Z,125.00
2022-08-04T11:39:14.193Z,138.45
2022-08-04T11:41:52.791Z,136.32
2022-08-04T11:44:31.542Z,142.85
2022-08-04T11:47:06.335Z,119.57
2022-08-04T11:49:56.837Z,110.25
2022-08-04T11:52:30.048Z,150.40
2022-08-04T11:55:05.121Z,155.57
2022-08-04T11:57:36.718Z,153.88
2022-08-04T12:00:13.857Z,182.93
2022-08-04T12:03:28.450Z,150.20
2022-08-04T12:06:16.752Z,146.52
2022-08-04T12:09:04.077Z,153.65
2022-08-04T12:11:52.849Z,134.38
2022-08-04T12:14:35.498Z,109.82
2022-08-04T12:17:07.207Z,101.78
2022-08-04T12:20:03.406Z,105.10
2022-08-04T12:22:40.988Z,91.28
2022-08-04T12:25:15.324Z,63.50
2022-08-04T12:27:52.778Z,49.92
2022-08-04T12:30:59.688Z,74.10
2022-08-04T12:33:22.575Z,60.00
2022-08-04T12:36:11.293Z,68.45
2022-08-04T12:38:49.644Z,61.58
2022-08-04T12:41:25.935Z,79.97
2022-08-04T12:43:56.764Z,54.65
2022-08-04T12:46:30.151Z,59.97
2022-08-04T12:49:06.067Z,65.65
2022-08-04T12:52:07.400Z,85.10
2022-08-04T12:54:37.353Z,72.05
2022-08-04T12:57:09.246Z,73.15
2022-08-04T12:59:44.970Z,120.30
2022-08-04T13:02:25.203Z,157.73
2022-08-04T13:04:56.563Z,130.85
2022-08-04T13:07:44.028Z,136.13
2022-08-04T13:10:14.914Z,148.07
2022-08-04T13:12:59.500Z,149.13
2022-08-04T13:18:27.357Z,127.55
2022-08-04T13:21:19.645Z,155.35
2022-08-04T13:24:19.814Z,99.72
2022-08-04T13:26:56.976Z,109.38
2022-08-04T13:29:59.932Z,84.03
2022-08-04T13:30:24.010Z,131.65
2022-08-04T13:32:32.910Z,87.80
2022-08-04T13:35:04.770Z,118.37
2022-08-04T13:37:37.126Z,129.75
2022-08-04T13:40:10.773Z,91.70
2022-08-04T13:42:42.093Z,88.18
2022-08-04T13:45:13.178Z,90.32
2022-08-04T13:47:45.124Z,110.80
2022-08-04T13:50:23.589Z,80.50
2022-08-04T13:52:56.349Z,83.78
2022-08-04T13:55:30.926Z,117.68
2022-08-04T13:58:10.985Z,115.82
2022-08-04T14:00:49.235Z,98.57
2022-08-04T14:03:31.754Z,105.32
2022-08-04T14:06:16.605Z,129.82
2022-08-04T14:08:51.358Z,118.03
2022-08-04T14:12:09.482Z,146.90
2022-08-04T14:14:23.177Z,128.20
2022-08-04T14:17:02.413Z,155.38
2022-08-04T14:19:53.541Z,157.35
2022-08-04T14:22:38.809Z,132.40
2022-08-04T14:25:16.072Z,125.05
2022-08-04T14:27:49.421Z,132.25
2022-08-04T14:30:31.317Z,115.10
2022-08-04T14:34:01.758Z,100.20
2022-08-04T14:36:04.713Z,141.15
2022-08-04T14:38:53.706Z,135.00
2022-08-04T14:41:27.028Z,103.50
2022-08-04T14:43:59.794Z,136.00
2022-08-04T14:46:35.145Z,130.95
2022-08-04T14:49:13.030Z,108.93
2022-08-04T14:51:46.310Z,136.95
2022-08-04T14:54:18.818Z,117.93
2022-08-04T14:56:58.008Z,125.90
2022-08-04T14:59:27.606Z,123.53
2022-08-04T15:02:00.351Z,94.97
2022-08-04T15:04:32.522Z,123.97
2022-08-04T15:07:04.496Z,94.72
2022-08-04T15:12:05.573Z,61.05
2022-08-04T15:14:38.238Z,72.00
2022-08-04T15:17:29.018Z,68.03
2022-08-04T15:19:58.824Z,55.65
2022-08-04T15:22:29.849Z,75.80
2022-08-04T15:24:59.297Z,102.45
2022-08-04T15:27:35.186Z,79.05
2022-08-04T15:30:07.821Z,77.82
2022-08-04T15:32:40.373Z,77.93
2022-08-04T15:35:14.602Z,61.55
2022-08-04T15:38:00.641Z,89.45
2022-08-04T15:40:40.131Z,101.35
2022-08-04T15:43:25.303Z,61.35
2022-08-04T15:46:40.965Z,64.60
2022-08-04T15:48:47.802Z,88.18
2022-08-04T15:51:32.067Z,105.75
2022-08-04T15:54:30.683Z,109.65
2022-08-04T15:57:03.701Z,86.63
2022-08-04T16:00:02.797Z,74.00
2022-08-04T16:02:47.741Z,84.20
2022-08-04T16:05:39.402Z,71.90
2022-08-04T16:08:20.104Z,75.57
2022-08-04T16:10:51.860Z,74.32
2022-08-04T16:13:23.802Z,84.38
2022-08-04T16:16:03.324Z,73.47
2022-08-04T16:18:44.068Z,63.80
2022-08-04T16:21:24.638Z,91.93
2022-08-04T16:24:21.744Z,85.75
2022-08-04T16:27:03.243Z,76.50
2022-08-04T16:29:39.864Z,77.95
2022-08-04T16:32:22.196Z,64.65
2022-08-04T16:34:59.998Z,74.10
2022-08-04T16:37:38.908Z,83.80
2022-08-04T16:40:37.522Z,48.75
2022-08-04T16:43:11.687Z,56.40
2022-08-04T16:45:54.090Z,84.18
2022-08-04T16:48:28.064Z,69.05
2022-08-04T16:51:05.599Z,74.07
2022-08-04T16:53:53.539Z,43.85
2022-08-04T16:56:39.230Z,117.45
2022-08-04T16:59:14.251Z,46.10
2022-08-04T17:01:53.428Z,56.00
2022-08-04T17:04:32.245Z,70.78
2022-08-04T17:07:07.043Z,63.05
2022-08-04T17:09:43.501Z,56.55
2022-08-04T17:12:12.918Z,65.97
2022-08-04T17:14:48.172Z,110.45
2022-08-04T17:18:04.044Z,47.38
2022-08-04T17:20:15.919Z,46.15
2022-08-04T17:22:45.533Z,69.72
2022-08-04T17:25:14.927Z,77.22
2022-08-04T17:28:19.081Z,61.67
2022-08-04T17:30:35.770Z,55.00
2022-08-04T17:33:05.424Z,48.53
2022-08-04T17:35:44.837Z,100.10
2022-08-04T17:38:18.609Z,45.15
2022-08-04T17:40:58.810Z,42.60
2022-08-04T17:44:04.678Z,50.47
2022-08-04T17:46:41.569Z,54.22
2022-08-04T17:49:22.380Z,60.28
2022-08-04T17:54:46.163Z,65.88
2022-08-04T17:57:19.967Z,67.55
2022-08-04T17:59:58.106Z,60.17
2022-08-04T18:02:35.087Z,59.15
2022-08-04T18:05:11.240Z,57.50
2022-08-04T18:08:39.003Z,56.17
2022-08-04T18:10:51.722Z,49.55
2022-08-04T18:13:27.388Z,59.28
2022-08-04T18:16:04.071Z,56.38
2022-08-04T18:18:38.442Z,55.38
2022-08-04T18:21:08.034Z,72.43
2022-08-04T18:23:50.397Z,78.93
2022-08-04T18:26:23.597Z,48.10
2022-08-04T18:28:53.694Z,60.92
2022-08-04T18:31:23.000Z,76.55
2022-08-04T18:33:57.100Z,39.53
2022-08-04T18:36:33.659Z,39.35
2022-08-04T18:39:13.480Z,50.55
2022-08-04T18:42:01.353Z,46.40
2022-08-04T18:44:32.917Z,67.18
2022-08-04T18:47:23.464Z,51.63
2022-08-04T18:50:58.643Z,58.80
2022-08-04T18:52:45.845Z,80.70
2022-08-04T18:58:11.626Z,52.97
2022-08-04T19:00:45.503Z,72.85
2022-08-04T19:03:16.529Z,68.55
2022-08-04T19:05:54.915Z,55.15
2022-08-04T19:08:34.463Z,97.65
2022-08-04T19:11:38.518Z,65.22
2022-08-04T19:13:58.886Z,64.45
2022-08-04T19:16:29.938Z,62.03
2022-08-04T19:19:00.511Z,59.58
2022-08-04T19:21:59.321Z,57.58
2022-08-04T19:24:32.538Z,62.08
2022-08-04T19:27:08.429Z,56.83
2022-08-04T19:32:29.936Z,72.47
2022-08-04T19:35:00.450Z,58.10
2022-08-04T19:37:56.679Z,106.55
2022-08-04T19:40:33.630Z,61.33
2022-08-04T19:43:14.448Z,65.97
2022-08-04T19:45:45.892Z,70.10
2022-08-04T19:48:19.395Z,61.95
2022-08-04T19:50:50.167Z,70.00
2022-08-04T19:53:37.107Z,74.57
2022-08-04T19:56:07.775Z,66.75
2022-08-04T19:58:38.677Z,56.08
2022-08-04T20:01:28.652Z,63.33
2022-08-04T20:04:08.839Z,63.92
2022-08-04T20:06:40.810Z,63.00
2022-08-04T20:09:24.978Z,70.25
2022-08-04T20:11:56.799Z,74.43
2022-08-04T20:14:32.612Z,68.20
2022-08-04T20:17:17.969Z,115.00
2022-08-04T20:19:51.250Z,114.72
2022-08-04T20:22:50.469Z,92.90
2022-08-04T20:25:35.559Z,53.78
2022-08-04T20:28:02.622Z,59.75
2022-08-04T20:30:33.467Z,58.97
2022-08-04T20:33:04.257Z,54.45
2022-08-04T20:36:03.246Z,51.22
2022-08-04T20:38:33.125Z,71.45
2022-08-04T20:41:05.199Z,74.55
2022-08-04T20:43:35.057Z,53.40
2022-08-04T20:48:59.944Z,30.90
2022-08-04T20:51:33.776Z,46.33
2022-08-04T20:54:16.506Z,34.75
2022-08-04T20:56:51.003Z,49.88
2022-08-04T20:59:21.151Z,47.10
2022-08-04T21:01:53.840Z,39.72
2022-08-04T21:04:33.123Z,41.07
2022-08-04T21:07:05.973Z,45.65
2022-08-04T21:12:28.586Z,54.28
2022-08-04T21:15:13.155Z,36.47
2022-08-04T21:17:58.589Z,36.80
2022-08-04T21:20:36.144Z,45.78
2022-08-04T21:23:09.202Z,41.95
2022-08-04T21:25:42.873Z,45.95
2022-08-04T21:28:20.481Z,42.38
2022-08-04T21:30:54.126Z,45.28
2022-08-04T21:33:49.025Z,40.42
2022-08-04T21:36:19.576Z,37.10
2022-08-04T21:38:51.190Z,42.25
2022-08-04T21:41:25.177Z,53.10
2022-08-04T21:43:58.628Z,35.97
2022-08-04T21:46:31.481Z,37.97
2022-08-04T21:49:01.165Z,38.55
2022-08-04T21:51:58.772Z,36.75
2022-08-04T21:54:25.052Z,43.03
2022-08-04T21:56:54.446Z,33.35
2022-08-04T21:59:30.637Z,61.20
2022-08-04T22:02:02.221Z,36.10
2022-08-04T22:04:32.015Z,38.20
2022-08-04T22:07:03.114Z,30.02
2022-08-04T22:09:40.931Z,35.67
2022-08-04T22:12:12.410Z,30.88
2022-08-04T22:14:43.350Z,57.20
2022-08-04T22:17:19.981Z,35.58
2022-08-04T22:19:56.158Z,34.97
2022-08-04T22:28:03.768Z,29.50
2022-08-04T22:30:37.562Z,26.13
2022-08-04T22:33:09.893Z,33.47
2022-08-04T22:35:48.770Z,29.23
2022-08-04T22:38:42.043Z,32.60
2022-08-04T22:41:18.038Z,26.48
2022-08-04T22:43:54.906Z,36.95
2022-08-04T22:46:30.250Z,25.27
2022-08-04T22:48:59.671Z,31.98
2022-08-04T22:51:39.393Z,36.70
2022-08-04T22:54:19.213Z,25.17
2022-08-04T22:56:48.846Z,25.95
2022-08-04T22:59:22.184Z,28.90
2022-08-04T23:02:00.820Z,31.23
2022-08-04T23:04:37.165Z,32.33
2022-08-04T23:07:09.751Z,37.72
2022-08-04T23:09:50.311Z,41.55
2022-08-04T23:12:25.089Z,40.22
2022-08-04T23:14:56.646Z,43.00
2022-08-04T23:17:34.021Z,47.00
2022-08-04T23:20:23.559Z,48.78
2022-08-04T23:23:14.625Z,61.47
2022-08-04T23:26:07.183Z,57.67
2022-08-04T23:28:36.254Z,52.80
2022-08-04T23:31:05.917Z,49.95
2022-08-04T23:33:49.441Z,55.85
2022-08-04T23:36:29.535Z,50.15
2022-08-04T23:39:06.422Z,61.63
2022-08-04T23:41:54.177Z,47.75
2022-08-04T23:44:27.208Z,43.47
2022-08-04T23:47:01.642Z,44.45
2022-08-04T23:49:43.709Z,43.00
2022-08-04T23:52:27.699Z,43.50
2022-08-04T23:55:03.486Z,53.25
2022-08-04T23:58:16.815Z,51.60
